createdAt,value
2018-10-03T00:00:59.430Z,733.83
2018-10-03T00:03:28.604Z,720.70
2018-10-03T00:05:57.660Z,725.90
2018-10-03T00:08:26.729Z,702.20
2018-10-03T00:10:55.857Z,732.40
2018-10-03T00:13:24.902Z,721.07
2018-10-03T00:15:54.007Z,753.73
2018-10-03T00:18:23.066Z,767.77
2018-10-03T00:20:52.071Z,765.70
2018-10-03T00:23:21.837Z,771.43
2018-10-03T00:25:50.892Z,759.50
2018-10-03T00:28:19.977Z,708.87
2018-10-03T00:30:49.071Z,664.93
2018-10-03T00:33:18.099Z,661.27
2018-10-03T00:35:47.173Z,642.37
2018-10-03T00:38:16.480Z,605.87
2018-10-03T00:40:45.535Z,590.10
2018-10-03T00:43:14.705Z,601.30
2018-10-03T00:45:43.725Z,577.33
2018-10-03T00:48:12.777Z,622.67
2018-10-03T00:50:41.850Z,637.17
2018-10-03T00:53:10.856Z,691.63
2018-10-03T00:55:39.916Z,719.73
2018-10-03T00:58:08.989Z,682.93
2018-10-03T01:00:38.045Z,738.90
2018-10-03T01:03:07.258Z,718.60
2018-10-03T01:05:36.321Z,735.87
2018-10-03T01:08:05.391Z,723.97
2018-10-03T01:10:34.434Z,727.47
2018-10-03T01:13:03.496Z,733.27
2018-10-03T01:15:39.409Z,727.30
2018-10-03T01:18:08.451Z,716.67
2018-10-03T01:20:37.510Z,717.77
2018-10-03T01:23:06.582Z,692.70
2018-10-03T01:25:35.648Z,662.23
2018-10-03T01:28:04.724Z,665.60
2018-10-03T01:30:33.785Z,626.57
2018-10-03T01:33:02.846Z,634.43
2018-10-03T01:35:31.934Z,645.83
2018-10-03T01:38:00.993Z,691.23
2018-10-03T01:40:30.058Z,690.40
2018-10-03T01:42:59.107Z,674.77
2018-10-03T01:45:28.111Z,660.80
2018-10-03T01:47:57.158Z,695.03
2018-10-03T01:50:26.240Z,658.33
2018-10-03T01:52:55.282Z,681.93
2018-10-03T01:55:24.325Z,636.13
2018-10-03T01:57:53.318Z,614.43
2018-10-03T02:00:22.366Z,649.53
2018-10-03T02:02:51.412Z,638.93
2018-10-03T02:05:20.471Z,661.30
2018-10-03T02:07:49.526Z,701.83
2018-10-03T02:10:18.560Z,730.77
2018-10-03T02:12:47.614Z,724.87
2018-10-03T02:15:16.622Z,695.17
2018-10-03T02:17:45.644Z,698.53
2018-10-03T02:20:14.726Z,681.67
2018-10-03T02:22:43.805Z,662.20
2018-10-03T02:25:12.826Z,669.33
2018-10-03T02:27:41.895Z,665.67
2018-10-03T02:30:10.985Z,657.50
2018-10-03T02:32:40.089Z,657.57
2018-10-03T02:35:09.109Z,646.47
2018-10-03T02:37:38.205Z,635.80
2018-10-03T02:40:07.279Z,642.57
2018-10-03T02:42:36.320Z,640.50
2018-10-03T02:45:05.514Z,611.73
2018-10-03T02:47:34.545Z,607.43
2018-10-03T02:50:03.662Z,632.70
2018-10-03T02:52:32.701Z,647.97
2018-10-03T02:55:01.790Z,636.53
2018-10-03T02:57:30.836Z,635.13
2018-10-03T02:59:59.854Z,687.53
2018-10-03T03:02:28.934Z,748.60
2018-10-03T03:04:57.945Z,727.67
2018-10-03T03:07:26.977Z,776.33
2018-10-03T03:09:56.054Z,853.97
2018-10-03T03:12:25.127Z,940.77
2018-10-03T03:14:54.201Z,1019.90
2018-10-03T03:17:23.245Z,995.57
2018-10-03T03:19:52.326Z,967.07
2018-10-03T03:22:21.336Z,1031.27
2018-10-03T03:24:50.405Z,1025.47
2018-10-03T03:27:19.450Z,946.53
2018-10-03T03:29:48.609Z,916.60
2018-10-03T03:32:17.611Z,853.03
2018-10-03T03:34:46.783Z,787.10
2018-10-03T03:37:15.837Z,804.00
2018-10-03T03:39:44.889Z,757.23
2018-10-03T03:42:14.069Z,764.70
2018-10-03T03:44:43.118Z,832.17
2018-10-03T03:47:12.152Z,866.77
2018-10-03T03:49:41.235Z,855.27
2018-10-03T03:52:10.349Z,853.00
2018-10-03T03:54:39.399Z,865.47
2018-10-03T03:57:08.445Z,910.37
2018-10-03T03:59:37.486Z,927.67
2018-10-03T04:02:09.380Z,937.97
2018-10-03T04:04:38.481Z,896.37
2018-10-03T04:07:07.561Z,873.30
2018-10-03T04:09:36.623Z,866.87
2018-10-03T04:12:05.705Z,860.83
2018-10-03T04:14:34.725Z,870.13
2018-10-03T04:17:03.856Z,855.60
2018-10-03T04:19:35.893Z,857.30
2018-10-03T04:22:04.927Z,824.63
2018-10-03T04:24:33.998Z,827.93
2018-10-03T04:27:03.062Z,822.80
2018-10-03T04:29:32.133Z,840.57
2018-10-03T04:32:01.139Z,867.37
2018-10-03T04:34:30.207Z,882.73
2018-10-03T04:36:59.213Z,912.53
2018-10-03T04:39:28.251Z,885.73
2018-10-03T04:41:57.381Z,927.30
2018-10-03T04:44:26.437Z,948.50
2018-10-03T04:46:55.473Z,972.27
2018-10-03T04:49:24.577Z,973.40
2018-10-03T04:51:53.656Z,1004.50
2018-10-03T04:54:22.720Z,1007.30
2018-10-03T04:56:51.828Z,1014.40
2018-10-03T04:59:21.119Z,1049.23
2018-10-03T05:01:50.223Z,1001.67
2018-10-03T05:04:19.283Z,1002.90
2018-10-03T05:06:48.344Z,991.87
2018-10-03T05:09:17.409Z,1009.90
2018-10-03T05:11:46.479Z,990.93
2018-10-03T05:14:15.573Z,991.27
2018-10-03T05:16:44.604Z,997.83
2018-10-03T05:19:13.673Z,991.33
2018-10-03T05:21:42.727Z,989.00
2018-10-03T05:24:11.812Z,982.60
2018-10-03T05:26:40.910Z,951.17
2018-10-03T05:29:10.348Z,963.33
2018-10-03T05:31:40.089Z,980.70
2018-10-03T05:34:09.191Z,943.10
2018-10-03T05:36:38.244Z,924.87
2018-10-03T05:39:09.794Z,926.53
2018-10-03T05:41:39.003Z,923.60
2018-10-03T05:44:08.107Z,834.43
2018-10-03T05:46:37.145Z,900.70
2018-10-03T05:49:06.250Z,856.53
2018-10-03T05:51:35.311Z,880.73
2018-10-03T05:54:04.438Z,880.87
2018-10-03T05:56:33.518Z,861.10
2018-10-03T05:59:02.643Z,885.70
2018-10-03T06:01:31.680Z,948.53
2018-10-03T06:04:00.799Z,901.27
2018-10-03T06:06:30.012Z,899.67
2018-10-03T06:08:59.101Z,919.97
2018-10-03T06:11:28.318Z,919.87
2018-10-03T06:13:57.465Z,930.83
2018-10-03T06:16:26.558Z,918.90
2018-10-03T06:18:55.569Z,917.40
2018-10-03T06:21:24.722Z,903.57
2018-10-03T06:23:53.769Z,879.77
2018-10-03T06:26:22.842Z,888.83
2018-10-03T06:28:51.949Z,880.97
2018-10-03T06:31:20.995Z,897.90
2018-10-03T06:33:50.052Z,905.13
2018-10-03T06:36:19.104Z,920.87
2018-10-03T06:38:48.140Z,922.57
2018-10-03T06:41:17.197Z,914.80
2018-10-03T06:43:46.324Z,940.10
2018-10-03T06:46:15.409Z,931.53
2018-10-03T06:48:44.498Z,931.27
2018-10-03T06:51:13.660Z,918.67
2018-10-03T06:53:42.769Z,928.47
2018-10-03T06:56:11.849Z,848.80
2018-10-03T07:01:17.290Z,859.73
2018-10-03T07:03:46.302Z,849.20
2018-10-03T07:06:15.374Z,879.00
2018-10-03T07:08:44.774Z,896.17
2018-10-03T07:11:13.941Z,925.03
2018-10-03T07:13:43.013Z,980.60
2018-10-03T07:16:12.064Z,911.53
2018-10-03T07:18:41.130Z,843.57
2018-10-03T07:21:10.192Z,850.70
2018-10-03T07:23:39.240Z,822.60
2018-10-03T07:26:08.637Z,749.57
2018-10-03T07:28:37.640Z,636.70
2018-10-03T07:31:06.794Z,435.50
2018-10-03T07:33:42.356Z,370.20
2018-10-03T07:36:11.411Z,369.03
2018-10-03T07:38:40.533Z,386.07
2018-10-03T07:41:09.612Z,450.43
2018-10-03T07:43:38.645Z,484.17
2018-10-03T07:46:07.754Z,387.23
2018-10-03T07:48:36.779Z,362.07
2018-10-03T07:51:05.944Z,602.23
2018-10-03T07:53:35.020Z,811.33
2018-10-03T07:56:04.138Z,898.70
2018-10-03T07:58:33.580Z,950.27
2018-10-03T08:01:02.648Z,952.60
2018-10-03T08:03:31.831Z,930.43
2018-10-03T08:07:08.188Z,914.87
2018-10-03T08:09:37.224Z,941.77
2018-10-03T08:12:06.297Z,904.47
2018-10-03T08:14:35.377Z,915.93
2018-10-03T08:17:04.493Z,936.40
2018-10-03T08:19:33.554Z,879.47
2018-10-03T08:22:02.645Z,905.87
2018-10-03T08:24:31.788Z,821.60
2018-10-03T08:27:00.834Z,559.80
2018-10-03T08:29:29.953Z,480.57
2018-10-03T08:31:59.039Z,669.30
2018-10-03T08:34:28.058Z,927.07
2018-10-03T08:36:57.137Z,1022.63
2018-10-03T08:39:26.228Z,1104.37
2018-10-03T08:42:01.883Z,1125.23
2018-10-03T08:46:34.930Z,956.87
2018-10-03T08:49:03.997Z,775.47
2018-10-03T08:51:33.392Z,677.17
2018-10-03T08:54:03.237Z,716.10
2018-10-03T08:56:32.350Z,794.63
2018-10-03T08:59:01.378Z,802.20
2018-10-03T09:01:30.524Z,871.73
2018-10-03T09:03:59.561Z,870.03
2018-10-03T09:06:28.661Z,804.07
2018-10-03T09:08:57.721Z,815.57
2018-10-03T09:11:26.926Z,845.40
2018-10-03T09:13:56.026Z,895.70
2018-10-03T09:16:25.101Z,899.00
2018-10-03T09:18:54.189Z,890.10
2018-10-03T09:21:23.296Z,918.60
2018-10-03T09:23:52.339Z,843.50
2018-10-03T09:26:21.400Z,835.63
2018-10-03T09:28:50.480Z,827.17
2018-10-03T09:31:19.657Z,792.90
2018-10-03T09:33:48.793Z,835.53
2018-10-03T09:36:17.915Z,820.30
2018-10-03T09:38:47.029Z,804.50
2018-10-03T09:41:16.162Z,790.10
2018-10-03T09:43:45.280Z,833.73
2018-10-03T09:46:14.354Z,821.27
2018-10-03T09:48:44.153Z,818.60
2018-10-03T09:51:13.246Z,808.73
2018-10-03T09:53:42.340Z,833.00
2018-10-03T09:56:10.514Z,870.80
2018-10-03T10:02:18.026Z,842.23
2018-10-03T10:04:47.040Z,793.90
2018-10-03T10:07:16.117Z,840.23
2018-10-03T10:09:45.210Z,792.93
2018-10-03T10:12:14.488Z,818.43
2018-10-03T10:14:43.540Z,852.57
2018-10-03T10:17:13.247Z,863.53
2018-10-03T10:19:42.350Z,859.33
2018-10-03T10:22:16.203Z,839.37
2018-10-03T10:24:45.234Z,873.97
2018-10-03T10:27:14.337Z,867.97
2018-10-03T10:29:43.451Z,853.57
2018-10-03T10:32:12.544Z,846.43
2018-10-03T10:34:45.543Z,863.70
2018-10-03T10:37:14.613Z,846.10
2018-10-03T10:39:43.766Z,838.83
2018-10-03T10:42:12.865Z,837.40
2018-10-03T10:44:42.082Z,832.77
2018-10-03T10:47:11.674Z,809.30
2018-10-03T10:49:40.837Z,840.17
2018-10-03T10:52:09.937Z,829.40
2018-10-03T10:54:39.040Z,848.77
2018-10-03T10:57:08.170Z,833.30
2018-10-03T10:59:40.930Z,815.20
2018-10-03T11:02:10.189Z,796.27
2018-10-03T11:04:39.304Z,763.57
2018-10-03T11:07:08.411Z,789.63
2018-10-03T11:09:37.810Z,744.33
2018-10-03T11:12:07.598Z,697.23
2018-10-03T11:14:36.869Z,547.47
2018-10-03T11:17:06.148Z,632.43
2018-10-03T11:19:35.183Z,618.67
2018-10-03T11:22:04.350Z,592.87
2018-10-03T11:24:33.649Z,581.60
2018-10-03T11:27:02.599Z,615.87
2018-10-03T11:29:31.683Z,520.37
2018-10-03T11:32:00.845Z,565.10
2018-10-03T11:34:29.909Z,516.63
2018-10-03T11:36:59.248Z,602.37
2018-10-03T11:39:28.405Z,559.07
2018-10-03T11:41:57.844Z,602.20
2018-10-03T11:44:26.949Z,551.00
2018-10-03T11:46:56.068Z,706.90
2018-10-03T11:49:25.111Z,762.40
2018-10-03T11:51:54.268Z,804.70
2018-10-03T11:54:23.366Z,848.00
2018-10-03T11:56:52.541Z,822.03
2018-10-03T11:59:21.590Z,829.07
2018-10-03T12:01:51.688Z,840.53
2018-10-03T12:04:27.324Z,844.97
2018-10-03T12:06:56.538Z,825.10
2018-10-03T12:09:25.677Z,819.40
2018-10-03T12:11:54.764Z,827.47
2018-10-03T12:14:23.832Z,832.83
2018-10-03T12:16:52.869Z,848.17
2018-10-03T12:19:27.926Z,831.90
2018-10-03T12:21:58.927Z,838.13
2018-10-03T12:24:33.695Z,826.73
2018-10-03T12:27:06.487Z,816.07
2018-10-03T12:29:40.936Z,823.47
2018-10-03T12:32:13.073Z,824.10
2018-10-03T12:34:46.277Z,813.37
2018-10-03T12:37:19.859Z,836.83
2018-10-03T12:39:51.818Z,809.97
2018-10-03T12:42:24.353Z,799.33
2018-10-03T12:44:56.998Z,761.57
2018-10-03T12:47:34.504Z,738.23
2018-10-03T12:50:06.630Z,710.30
2018-10-03T12:52:38.941Z,727.23
2018-10-03T12:55:15.910Z,722.97
2018-10-03T12:57:45.886Z,700.13
2018-10-03T13:00:15.038Z,670.10
2018-10-03T13:02:44.132Z,691.37
2018-10-03T13:05:13.253Z,726.33
2018-10-03T13:07:42.312Z,739.67
2018-10-03T13:10:11.421Z,707.43
2018-10-03T13:12:40.479Z,741.63
2018-10-03T13:15:09.606Z,752.80
2018-10-03T13:17:38.705Z,766.40
2018-10-03T13:20:09.250Z,739.10
2018-10-03T13:22:38.382Z,632.63
2018-10-03T13:25:07.550Z,615.23
2018-10-03T13:27:37.716Z,530.93
2018-10-03T13:30:07.349Z,529.67
2018-10-03T13:32:36.545Z,601.67
2018-10-03T13:35:05.912Z,512.90
2018-10-03T13:37:35.071Z,552.57
2018-10-03T13:40:04.250Z,551.27
2018-10-03T13:42:33.385Z,581.00
2018-10-03T13:45:05.274Z,621.90
2018-10-03T13:47:34.517Z,632.07
2018-10-03T13:50:03.710Z,654.40
2018-10-03T13:52:32.831Z,686.80
2018-10-03T13:55:01.946Z,639.23
2018-10-03T13:57:31.065Z,621.07
2018-10-03T14:00:00.181Z,606.37
2018-10-03T14:02:29.252Z,599.97
2018-10-03T14:04:58.306Z,573.53
2018-10-03T14:07:29.184Z,598.90
2018-10-03T14:09:59.440Z,595.13
2018-10-03T14:12:28.593Z,610.20
2018-10-03T14:14:57.707Z,579.50
2018-10-03T14:17:27.096Z,565.50
2018-10-03T14:19:56.318Z,609.23
2018-10-03T14:22:25.448Z,576.53
2018-10-03T14:24:54.482Z,618.30
2018-10-03T14:27:23.645Z,637.57
2018-10-03T14:29:52.813Z,651.63
2018-10-03T14:32:22.721Z,678.30
2018-10-03T14:34:51.841Z,723.37
2018-10-03T14:37:20.890Z,722.07
2018-10-03T14:39:50.081Z,738.83
2018-10-03T14:42:20.092Z,762.00
2018-10-03T14:44:50.125Z,787.30
2018-10-03T14:47:20.078Z,824.93
2018-10-03T14:49:50.131Z,802.77
2018-10-03T14:52:19.626Z,825.33
2018-10-03T14:54:49.638Z,822.43
2018-10-03T14:57:19.540Z,826.70
2018-10-03T14:59:49.569Z,814.50
2018-10-03T15:02:19.524Z,807.97
2018-10-03T15:04:49.518Z,822.57
2018-10-03T15:07:19.537Z,825.70
2018-10-03T15:09:49.447Z,797.30
2018-10-03T15:12:19.475Z,815.37
2018-10-03T15:14:49.469Z,814.70
2018-10-03T15:17:19.460Z,825.80
2018-10-03T15:19:48.657Z,826.03
2018-10-03T15:22:17.774Z,822.53
2018-10-03T15:24:47.727Z,822.93
2018-10-03T15:27:17.738Z,808.47
2018-10-03T15:29:47.883Z,741.73
2018-10-03T15:32:17.684Z,713.73
2018-10-03T15:34:47.671Z,674.57
2018-10-03T15:37:17.651Z,694.00
2018-10-03T15:39:46.758Z,670.40
2018-10-03T15:42:15.916Z,683.43
2018-10-03T15:44:44.983Z,685.67
2018-10-03T15:47:14.949Z,688.20
2018-10-03T15:49:44.807Z,700.17
2018-10-03T15:52:14.753Z,694.93
2018-10-03T15:54:43.930Z,721.30
2018-10-03T15:57:13.052Z,699.77
2018-10-03T15:59:42.407Z,711.23
2018-10-03T16:02:11.976Z,706.60
2018-10-03T16:04:41.491Z,713.37
2018-10-03T16:07:11.493Z,711.53
2018-10-03T16:09:41.487Z,715.93
2018-10-03T16:12:10.776Z,691.37
2018-10-03T16:14:39.840Z,724.87
2018-10-03T16:17:08.965Z,707.27
2018-10-03T16:19:38.137Z,715.57
2018-10-03T16:22:07.907Z,689.07
2018-10-03T16:24:37.012Z,702.17
2018-10-03T16:27:06.117Z,686.70
2018-10-03T16:29:35.238Z,692.60
2018-10-03T16:32:04.374Z,707.90
2018-10-03T16:34:33.505Z,687.13
2018-10-03T16:37:02.571Z,705.53
2018-10-03T16:39:31.657Z,737.27
2018-10-03T16:42:00.841Z,727.17
2018-10-03T16:44:29.969Z,747.53
2018-10-03T16:46:59.069Z,751.93
2018-10-03T16:49:28.127Z,751.93
2018-10-03T16:51:57.245Z,769.30
2018-10-03T16:54:26.345Z,758.83
2018-10-03T16:56:55.426Z,752.63
2018-10-03T16:59:24.558Z,755.37
2018-10-03T17:01:53.677Z,760.83
2018-10-03T17:04:22.860Z,726.57
2018-10-03T17:06:52.058Z,723.40
2018-10-03T17:09:22.991Z,731.20
2018-10-03T17:11:56.549Z,722.33
2018-10-03T17:14:54.173Z,731.33
2018-10-03T17:17:23.309Z,717.03
2018-10-03T17:19:52.443Z,718.87
2018-10-03T17:22:21.576Z,703.13
2018-10-03T17:24:50.713Z,735.37
2018-10-03T17:27:19.849Z,724.63
2018-10-03T17:29:48.975Z,729.23
2018-10-03T17:32:18.091Z,711.63
2018-10-03T17:34:49.950Z,703.10
2018-10-03T17:37:19.135Z,694.00
2018-10-03T17:39:48.218Z,704.07
2018-10-03T17:42:17.332Z,689.53
2018-10-03T17:44:46.432Z,686.20
2018-10-03T17:47:15.536Z,678.37
2018-10-03T17:49:44.598Z,661.27
2018-10-03T17:52:13.770Z,648.50
2018-10-03T17:54:42.906Z,625.50
2018-10-03T17:57:12.031Z,603.77
2018-10-03T17:59:41.171Z,582.27
2018-10-03T18:02:11.880Z,548.47
2018-10-03T18:04:40.987Z,547.93
2018-10-03T18:07:10.117Z,536.97
2018-10-03T18:09:39.252Z,501.93
2018-10-03T18:12:08.384Z,476.47
2018-10-03T18:14:37.498Z,461.37
2018-10-03T18:17:06.644Z,415.07
2018-10-03T18:19:36.633Z,401.53
2018-10-03T18:22:06.523Z,391.17
2018-10-03T18:24:36.036Z,375.50
2018-10-03T18:27:05.903Z,348.97
2018-10-03T18:29:34.974Z,333.33
2018-10-03T18:32:04.093Z,341.87
2018-10-03T18:34:33.920Z,336.73
2018-10-03T18:37:03.902Z,327.63
2018-10-03T18:39:33.875Z,348.43
2018-10-03T18:42:03.852Z,322.67
2018-10-03T18:44:33.765Z,335.13
2018-10-03T18:47:03.022Z,366.77
2018-10-03T18:49:31.954Z,387.13
2018-10-03T18:52:02.003Z,424.73
2018-10-03T18:54:31.885Z,426.77
2018-10-03T18:57:01.826Z,477.93
2018-10-03T18:59:31.935Z,485.93
2018-10-03T19:02:01.232Z,502.83
2018-10-03T19:04:30.985Z,517.17
2018-10-03T19:07:00.633Z,533.90
2018-10-03T19:09:29.737Z,508.40
2018-10-03T19:11:58.856Z,514.63
2018-10-03T19:14:28.843Z,513.20
2018-10-03T19:16:58.757Z,504.83
2018-10-03T19:19:28.780Z,496.40
2018-10-03T19:21:58.624Z,478.50
2018-10-03T19:24:27.745Z,476.70
2018-10-03T19:26:57.598Z,469.37
2018-10-03T19:29:27.493Z,480.37
2018-10-03T19:31:57.269Z,489.37
2018-10-03T19:34:27.196Z,494.43
2018-10-03T19:36:56.264Z,483.53
2018-10-03T19:39:25.345Z,485.07
2018-10-03T19:41:54.513Z,456.43
2018-10-03T19:44:23.581Z,471.43
2018-10-03T19:46:52.646Z,442.63
2018-10-03T19:49:21.740Z,453.60
2018-10-03T19:51:50.839Z,434.00
2018-10-03T19:54:19.889Z,426.43
2018-10-03T19:56:49.760Z,440.03
2018-10-03T19:59:18.890Z,425.63
2018-10-03T20:01:47.970Z,411.47
2018-10-03T20:04:17.119Z,458.83
2018-10-03T20:06:46.294Z,444.80
2018-10-03T20:09:15.389Z,456.77
2018-10-03T20:11:44.542Z,443.33
2018-10-03T20:14:13.593Z,455.87
2018-10-03T20:16:42.762Z,486.53
2018-10-03T20:19:11.888Z,463.53
2018-10-03T20:21:40.990Z,468.53
2018-10-03T20:24:10.121Z,485.03
2018-10-03T20:26:39.368Z,471.50
2018-10-03T20:29:08.653Z,485.63
2018-10-03T20:31:37.872Z,490.33
2018-10-03T20:34:07.053Z,493.83
2018-10-03T20:36:36.230Z,487.70
2018-10-03T20:39:07.331Z,507.53
2018-10-03T20:41:36.723Z,532.50
2018-10-03T20:44:06.370Z,548.83
2018-10-03T20:46:35.425Z,570.87
2018-10-03T20:49:04.521Z,546.43
2018-10-03T20:51:33.572Z,556.40
2018-10-03T20:54:02.676Z,574.70
2018-10-03T20:56:31.825Z,556.07
2018-10-03T20:59:00.962Z,570.30
2018-10-03T21:01:30.054Z,586.70
2018-10-03T21:03:59.138Z,579.60
2018-10-03T21:06:28.166Z,594.13
2018-10-03T21:08:57.256Z,620.37
2018-10-03T21:11:26.311Z,595.10
2018-10-03T21:13:55.359Z,608.77
2018-10-03T21:16:24.485Z,603.23
2018-10-03T21:18:53.528Z,593.30
2018-10-03T21:21:22.781Z,593.77
2018-10-03T21:23:51.888Z,596.23
2018-10-03T21:26:20.967Z,600.20
2018-10-03T21:28:50.063Z,613.43
2018-10-03T21:31:19.249Z,620.90
2018-10-03T21:33:48.351Z,614.30
2018-10-03T21:36:17.419Z,637.60
2018-10-03T21:38:46.562Z,621.23
2018-10-03T21:41:15.654Z,634.13
2018-10-03T21:43:44.751Z,639.10
2018-10-03T21:46:13.918Z,638.00
2018-10-03T21:48:43.017Z,676.37
2018-10-03T21:51:12.123Z,660.97
2018-10-03T21:53:41.212Z,655.43
2018-10-03T21:56:10.381Z,729.50
2018-10-03T21:58:39.573Z,724.67
2018-10-03T22:01:08.675Z,742.80
2018-10-03T22:03:40.553Z,724.50
2018-10-03T22:06:11.166Z,747.17
2018-10-03T22:08:40.290Z,805.87
2018-10-03T22:11:10.284Z,788.73
2018-10-03T22:13:39.388Z,805.17
2018-10-03T22:16:08.765Z,823.03
2018-10-03T22:18:39.586Z,831.77
2018-10-03T22:21:10.024Z,823.13
2018-10-03T22:23:40.999Z,832.07
2018-10-03T22:26:10.448Z,844.43
2018-10-03T22:28:39.899Z,837.13
2018-10-03T22:31:09.192Z,845.50
2018-10-03T22:33:38.233Z,883.67
2018-10-03T22:36:07.317Z,865.30
2018-10-03T22:38:37.607Z,899.20
2018-10-03T22:41:10.217Z,913.13
2018-10-03T22:43:39.303Z,946.47
2018-10-03T22:46:08.828Z,938.20
2018-10-03T22:48:37.860Z,938.07
2018-10-03T22:51:07.072Z,952.23
2018-10-03T22:53:36.299Z,967.90
2018-10-03T22:56:05.579Z,965.77
2018-10-03T22:58:34.617Z,977.93
2018-10-03T23:01:03.693Z,974.60
2018-10-03T23:03:32.741Z,990.53
2018-10-03T23:06:01.933Z,1019.90
2018-10-03T23:08:30.998Z,977.60
2018-10-03T23:11:00.072Z,991.03
2018-10-03T23:13:29.230Z,993.80
2018-10-03T23:15:58.280Z,987.53
2018-10-03T23:18:27.445Z,982.63
2018-10-03T23:20:56.524Z,1002.30
2018-10-03T23:23:25.561Z,1000.73
2018-10-03T23:25:54.838Z,1012.87
2018-10-03T23:28:23.914Z,1001.47
2018-10-03T23:30:53.020Z,1006.53
2018-10-03T23:33:22.674Z,1028.70
2018-10-03T23:35:51.757Z,1013.83
2018-10-03T23:38:21.335Z,1007.00
2018-10-03T23:40:50.472Z,1011.70
2018-10-03T23:43:19.865Z,1001.10
2018-10-03T23:45:48.962Z,1000.73
2018-10-03T23:48:17.985Z,971.13
2018-10-03T23:50:47.056Z,969.70
2018-10-03T23:53:16.123Z,962.33
2018-10-03T23:55:45.203Z,935.73
2018-10-03T23:58:14.271Z,906.50
